Terminal Aerodrome Forecast
Issued by NWS

Home | Current Version | Previous Version | Text Only | Print | Product List | Glossary On
Versions: 1 2 3 4 5 6 7 8 9 10 11 12 13 14 15 16
764
FTUS42 KTBW 140528
TAFLAL
TAF
KLAL 140528Z 1406/1506 03006KT P6SM SKC
     FM141500 07009KT P6SM SKC
     FM141800 09008KT P6SM FEW030 FEW250
     FM142200 09006KT P6SM SCT035 SCT300
      AMD NOT SKED 1406/1412=

USA.gov is the U.S. government's official web portal to all federal, state and local government web resources and services.